Time;durP1;ratioP1;P1;durP2;ratioP2;P2;SDS_P1;SDS_P2;PMS_P1;PMS_P2;Temp;Humidity;BMP_temperature;BMP_pressure;BME280_temperature;BME280_humidity;BME280_pressure;Samples;Min_cycle;Max_cycle;Signal;HPM_P1;HPM_P2
2023/08/02 00:02:15;;;;;;;;;;;15.90;95.00;;;;;;5092976;28;19916;-77
2023/08/02 00:04:41;;;;;;;;;;;15.90;94.90;;;;;;5092756;28;19923;-78
2023/08/02 00:07:07;;;;;;;;;;;15.90;95.00;;;;;;5092813;28;19967;-78
2023/08/02 00:09:33;;;;;;;;;;;15.80;95.10;;;;;;5092812;28;19916;-78
2023/08/02 00:11:59;;;;;;;;;;;15.80;95.20;;;;;;5075885;28;19916;-78
2023/08/02 00:14:25;;;;;;;;;;;15.80;95.40;;;;;;5092808;28;19958;-78
2023/08/02 00:16:50;;;;;;;;;;;15.80;95.40;;;;;;5092560;28;19927;-78
2023/08/02 00:19:16;;;;;;;;;;;15.80;95.50;;;;;;5092655;28;19935;-77
2023/08/02 00:21:42;;;;;;;;;;;15.80;95.50;;;;;;5092878;28;20356;-78
2023/08/02 00:24:08;;;;;;;;;;;15.70;95.50;;;;;;5092666;28;19930;-78
2023/08/02 00:26:34;;;;;;;;;;;15.70;95.80;;;;;;5092559;28;20401;-78
2023/08/02 00:29:00;;;;;;;;;;;15.70;95.70;;;;;;5092481;28;20002;-79
2023/08/02 00:31:25;;;;;;;;;;;15.70;95.70;;;;;;5092742;28;19922;-78
2023/08/02 00:33:51;;;;;;;;;;;15.70;95.80;;;;;;5075913;28;20341;-78
2023/08/02 00:36:17;;;;;;;;;;;15.70;95.90;;;;;;5092630;28;20279;-78
2023/08/02 00:38:42;;;;;;;;;;;15.80;95.90;;;;;;5092448;28;19939;-78
2023/08/02 00:41:09;;;;;;;;;;;15.80;96.10;;;;;;5075482;28;19919;-79
2023/08/02 00:43:39;;;;;;;;;;;15.80;95.90;;;;;;5092628;28;19963;-78
2023/08/02 00:46:05;;;;;;;;;;;15.80;95.80;;;;;;5058768;28;19916;-78
2023/08/02 00:48:32;;;;;;;;;;;15.80;95.70;;;;;;5059060;28;19916;-78
2023/08/02 00:50:57;;;;;;;;;;;15.90;95.60;;;;;;5075800;28;19962;-78
2023/08/02 00:53:23;;;;;;;;;;;15.90;95.80;;;;;;5075366;28;20307;-78
2023/08/02 00:55:49;;;;;;;;;;;15.90;95.70;;;;;;5075221;28;19920;-78
2023/08/02 00:58:14;;;;;;;;;;;15.80;95.60;;;;;;5075310;28;19927;-79
2023/08/02 01:00:40;;;;;;;;;;;15.80;95.50;;;;;;5092167;28;19916;-79
2023/08/02 01:03:06;;;;;;;;;;;15.90;95.60;;;;;;5058952;28;19923;-78
2023/08/02 01:05:34;;;;;;;;;;;15.90;95.70;;;;;;5058459;28;19956;-78
2023/08/02 01:08:02;;;;;;;;;;;15.80;95.80;;;;;;5092425;28;20336;-79
2023/08/02 01:10:43;;;;;;;;;;;15.80;95.80;;;;;;5092250;28;20386;-79
2023/08/02 01:13:09;;;;;;;;;;;15.80;95.90;;;;;;5092060;28;19955;-79
2023/08/02 01:15:36;;;;;;;;;;;15.80;95.70;;;;;;5092237;28;19916;-79
2023/08/02 01:18:02;;;;;;;;;;;15.90;95.80;;;;;;5094398;28;20034;-79
2023/08/02 01:20:27;;;;;;;;;;;15.80;95.70;;;;;;5096364;28;20056;-78
2023/08/02 01:22:53;;;;;;;;;;;15.90;95.60;;;;;;5096272;28;20357;-79
2023/08/02 01:25:19;;;;;;;;;;;15.90;95.60;;;;;;5079138;28;19916;-79
2023/08/02 01:27:51;;;;;;;;;;;15.90;95.60;;;;;;5096149;28;19916;-79
2023/08/02 01:30:18;;;;;;;;;;;15.90;95.60;;;;;;5096188;28;19971;-78
2023/08/02 01:32:44;;;;;;;;;;;15.90;95.60;;;;;;5095767;28;19922;-78
2023/08/02 01:35:09;;;;;;;;;;;15.90;95.60;;;;;;5078859;28;20010;-78
2023/08/02 01:37:35;;;;;;;;;;;15.90;95.70;;;;;;5078761;28;19920;-78
2023/08/02 01:40:01;;;;;;;;;;;15.90;95.70;;;;;;5095720;28;19923;-78
2023/08/02 01:42:27;;;;;;;;;;;16.00;95.60;;;;;;5062177;28;19969;-78
2023/08/02 01:44:52;;;;;;;;;;;15.90;95.50;;;;;;5078950;28;20010;-79
2023/08/02 01:47:18;;;;;;;;;;;16.00;95.60;;;;;;5061832;28;19916;-78
2023/08/02 01:49:44;;;;;;;;;;;15.90;95.50;;;;;;5095538;28;19916;-78
2023/08/02 01:52:09;;;;;;;;;;;16.00;95.50;;;;;;5078494;28;20006;-79
2023/08/02 01:54:35;;;;;;;;;;;16.00;95.50;;;;;;5078811;28;19916;-78
2023/08/02 01:57:01;;;;;;;;;;;16.00;95.50;;;;;;5095138;28;20291;-77
2023/08/02 01:59:26;;;;;;;;;;;16.00;95.60;;;;;;5078331;28;19927;-78
2023/08/02 02:01:52;;;;;;;;;;;16.00;95.60;;;;;;5078376;28;19920;-78
2023/08/02 02:04:17;;;;;;;;;;;15.90;95.60;;;;;;5078322;28;19962;-78
2023/08/02 02:06:43;;;;;;;;;;;16.00;95.50;;;;;;5078149;28;19923;-78
2023/08/02 02:09:08;;;;;;;;;;;16.00;95.50;;;;;;5078194;28;19923;-79
2023/08/02 02:11:34;;;;;;;;;;;15.90;95.50;;;;;;5078126;28;19923;-79
2023/08/02 02:13:59;;;;;;;;;;;16.00;95.50;;;;;;5095078;28;19964;-79
2023/08/02 02:16:25;;;;;;;;;;;15.90;95.50;;;;;;5095021;28;19915;-79
2023/08/02 02:18:51;;;;;;;;;;;15.90;95.50;;;;;;5094912;28;19959;-77
2023/08/02 02:21:16;;;;;;;;;;;15.90;95.50;;;;;;5094752;28;19927;-79
2023/08/02 02:23:42;;;;;;;;;;;15.90;95.60;;;;;;5077982;28;19985;-79
2023/08/02 02:26:08;;;;;;;;;;;15.90;95.60;;;;;;5077813;28;19923;-78
2023/08/02 02:28:33;;;;;;;;;;;15.90;95.50;;;;;;5093434;28;19916;-79
2023/08/02 02:30:59;;;;;;;;;;;15.90;95.40;;;;;;5077847;28;20037;-78
2023/08/02 02:33:25;;;;;;;;;;;15.90;95.40;;;;;;5077768;28;19916;-79
2023/08/02 02:35:50;;;;;;;;;;;15.90;95.50;;;;;;5077521;28;19916;-78
2023/08/02 02:38:16;;;;;;;;;;;15.90;95.60;;;;;;5094511;28;19920;-79
2023/08/02 02:40:42;;;;;;;;;;;15.90;95.60;;;;;;5094844;28;19962;-79
2023/08/02 02:43:07;;;;;;;;;;;15.90;95.60;;;;;;5094536;28;19923;-78
2023/08/02 02:45:33;;;;;;;;;;;15.90;95.50;;;;;;5094300;28;19970;-78
2023/08/02 02:47:58;;;;;;;;;;;15.90;95.60;;;;;;5077832;28;19916;-78
2023/08/02 02:50:24;;;;;;;;;;;15.90;95.60;;;;;;5077430;28;19923;-78
2023/08/02 02:52:50;;;;;;;;;;;15.90;95.50;;;;;;5094274;28;19963;-79
2023/08/02 02:55:15;;;;;;;;;;;15.90;95.50;;;;;;5094608;28;19923;-79
2023/08/02 02:57:41;;;;;;;;;;;15.90;95.50;;;;;;5077260;28;20382;-79
2023/08/02 03:00:08;;;;;;;;;;;15.90;95.50;;;;;;5094293;28;20007;-79
2023/08/02 03:02:33;;;;;;;;;;;15.80;95.50;;;;;;5061058;28;19967;-78
2023/08/02 03:04:59;;;;;;;;;;;15.80;95.50;;;;;;5060445;28;19937;-78
2023/08/02 03:07:25;;;;;;;;;;;15.80;95.50;;;;;;5094074;28;19923;-79
2023/08/02 03:09:51;;;;;;;;;;;15.80;95.60;;;;;;5094212;28;20010;-79
2023/08/02 03:12:16;;;;;;;;;;;15.80;95.70;;;;;;5077064;28;19920;-78
2023/08/02 03:14:42;;;;;;;;;;;15.80;95.70;;;;;;5094207;28;19923;-79
2023/08/02 03:17:07;;;;;;;;;;;15.70;95.70;;;;;;5060442;28;19919;-78
2023/08/02 03:19:33;;;;;;;;;;;15.70;95.70;;;;;;5076712;28;20334;-78
2023/08/02 03:21:59;;;;;;;;;;;15.70;95.60;;;;;;5093637;28;20003;-78
2023/08/02 03:24:24;;;;;;;;;;;15.70;95.60;;;;;;5094037;28;19967;-78
2023/08/02 03:26:50;;;;;;;;;;;15.70;95.60;;;;;;5076618;28;19916;-79
2023/08/02 03:29:15;;;;;;;;;;;15.60;95.70;;;;;;5093555;28;19916;-79
2023/08/02 03:31:42;;;;;;;;;;;15.60;95.70;;;;;;5076603;28;19922;-79
2023/08/02 03:34:07;;;;;;;;;;;15.60;95.70;;;;;;5076835;28;19915;-79
2023/08/02 03:36:33;;;;;;;;;;;15.60;95.80;;;;;;5076396;28;20390;-79
2023/08/02 03:38:59;;;;;;;;;;;15.60;95.80;;;;;;5093347;28;19920;-79
2023/08/02 03:41:24;;;;;;;;;;;15.60;95.80;;;;;;5092949;28;19916;-78
2023/08/02 03:43:50;;;;;;;;;;;15.60;96.00;;;;;;5076294;28;19916;-79
2023/08/02 03:46:15;;;;;;;;;;;15.60;95.90;;;;;;5075864;28;19916;-78
2023/08/02 03:48:41;;;;;;;;;;;15.60;95.90;;;;;;5092586;28;20334;-79
2023/08/02 03:51:07;;;;;;;;;;;15.70;95.90;;;;;;5059503;28;19924;-78
2023/08/02 03:53:32;;;;;;;;;;;15.60;96.00;;;;;;5075810;28;20287;-79
2023/08/02 03:55:58;;;;;;;;;;;15.70;96.20;;;;;;5093356;28;19923;-78
2023/08/02 03:58:23;;;;;;;;;;;15.60;96.20;;;;;;5093180;28;20292;-78
2023/08/02 04:00:49;;;;;;;;;;;15.60;96.20;;;;;;5059560;28;20351;-79
2023/08/02 04:03:15;;;;;;;;;;;15.60;96.20;;;;;;5093066;28;19923;-78
2023/08/02 04:05:41;;;;;;;;;;;15.70;96.00;;;;;;5075955;28;19923;-78
2023/08/02 04:08:06;;;;;;;;;;;15.60;96.00;;;;;;5093523;28;19926;-78
2023/08/02 04:10:36;;;;;;;;;;;15.60;96.10;;;;;;5092932;28;20342;-78
2023/08/02 04:13:01;;;;;;;;;;;15.60;96.10;;;;;;5093208;28;19916;-78
2023/08/02 04:15:29;;;;;;;;;;;15.60;96.20;;;;;;5059242;28;20356;-79
2023/08/02 04:17:56;;;;;;;;;;;15.50;96.00;;;;;;5092662;28;19928;-79
2023/08/02 04:20:22;;;;;;;;;;;15.60;96.00;;;;;;5092840;28;19915;-79
2023/08/02 04:22:49;;;;;;;;;;;15.50;96.00;;;;;;5059197;28;19959;-79
2023/08/02 04:25:15;;;;;;;;;;;15.50;96.00;;;;;;5059521;28;19916;-79
2023/08/02 04:27:41;;;;;;;;;;;15.50;95.90;;;;;;5092418;28;19920;-79
2023/08/02 04:30:07;;;;;;;;;;;15.50;95.90;;;;;;5092861;28;19927;-78
2023/08/02 04:32:32;;;;;;;;;;;15.50;96.00;;;;;;5075751;28;20448;-78
2023/08/02 04:34:58;;;;;;;;;;;15.50;96.10;;;;;;5059327;28;19916;-79
2023/08/02 04:37:23;;;;;;;;;;;15.40;96.00;;;;;;5092667;28;19920;-78
2023/08/02 04:39:49;;;;;;;;;;;15.40;96.00;;;;;;5092576;28;19923;-78
2023/08/02 04:42:15;;;;;;;;;;;15.40;96.00;;;;;;5059190;28;19995;-78
2023/08/02 04:44:41;;;;;;;;;;;15.40;95.90;;;;;;5075709;28;19950;-79
2023/08/02 04:47:06;;;;;;;;;;;15.40;95.90;;;;;;5092419;28;19923;-79
2023/08/02 04:49:32;;;;;;;;;;;15.40;96.00;;;;;;5092520;28;19949;-79
2023/08/02 04:51:58;;;;;;;;;;;15.40;95.90;;;;;;5074754;28;19915;-78
2023/08/02 04:54:23;;;;;;;;;;;15.40;95.90;;;;;;5058774;28;19985;-78
2023/08/02 04:56:49;;;;;;;;;;;15.40;95.90;;;;;;5075548;28;19930;-79
2023/08/02 04:59:14;;;;;;;;;;;15.40;95.90;;;;;;5092370;28;20410;-79
2023/08/02 05:01:40;;;;;;;;;;;15.40;95.80;;;;;;5075502;28;19916;-78
2023/08/02 05:04:08;;;;;;;;;;;15.30;95.70;;;;;;5094123;28;19916;-78
2023/08/02 05:06:34;;;;;;;;;;;15.30;95.70;;;;;;5098683;28;20364;-79
2023/08/02 05:09:01;;;;;;;;;;;15.30;95.80;;;;;;5078375;28;20390;-78
2023/08/02 05:11:27;;;;;;;;;;;15.30;95.70;;;;;;5077988;28;19926;-78
2023/08/02 05:13:52;;;;;;;;;;;15.20;95.70;;;;;;5078723;28;19916;-79
2023/08/02 05:16:18;;;;;;;;;;;15.30;95.60;;;;;;5078526;28;19916;-79
2023/08/02 05:18:43;;;;;;;;;;;15.30;95.60;;;;;;5096611;28;19920;-79
2023/08/02 05:21:09;;;;;;;;;;;15.20;95.70;;;;;;5062010;28;19915;-78
2023/08/02 05:23:35;;;;;;;;;;;15.20;95.80;;;;;;5075559;28;19905;-78
2023/08/02 05:26:04;;;;;;;;;;;15.20;95.90;;;;;;5082410;28;19938;-79
2023/08/02 05:28:30;;;;;;;;;;;15.20;95.90;;;;;;5098021;28;19900;-77
2023/08/02 05:30:55;;;;;;;;;;;15.20;95.80;;;;;;5099470;28;19907;-78
2023/08/02 05:33:21;;;;;;;;;;;15.20;95.80;;;;;;5117180;28;19907;-78
2023/08/02 05:35:46;;;;;;;;;;;15.20;95.70;;;;;;5098235;28;19996;-78
2023/08/02 05:38:12;;;;;;;;;;;15.20;95.80;;;;;;5097977;28;19930;-78
2023/08/02 05:40:38;;;;;;;;;;;15.20;95.90;;;;;;5112550;28;19916;-77
2023/08/02 05:43:03;;;;;;;;;;;15.20;95.80;;;;;;5095992;28;19941;-77
2023/08/02 05:45:29;;;;;;;;;;;15.20;95.80;;;;;;5084985;28;19920;-78
2023/08/02 05:47:54;;;;;;;;;;;15.20;95.70;;;;;;5087786;28;19908;-77
2023/08/02 05:50:20;;;;;;;;;;;15.20;95.80;;;;;;5097716;28;19920;-78
2023/08/02 05:52:45;;;;;;;;;;;15.20;95.80;;;;;;5082509;28;19920;-78
2023/08/02 05:55:11;;;;;;;;;;;15.30;95.80;;;;;;5089532;28;19908;-77
2023/08/02 05:57:37;;;;;;;;;;;15.30;95.70;;;;;;5089178;28;19950;-77
2023/08/02 06:00:03;;;;;;;;;;;15.40;95.70;;;;;;5082800;28;19907;-77
2023/08/02 06:02:28;;;;;;;;;;;15.40;95.80;;;;;;5111050;28;19908;-76
2023/08/02 06:04:54;;;;;;;;;;;15.50;95.80;;;;;;5092354;28;19900;-77
2023/08/02 06:07:19;;;;;;;;;;;15.50;95.80;;;;;;5110819;28;19911;-76
2023/08/02 06:09:48;;;;;;;;;;;15.50;95.70;;;;;;5077835;28;20411;-77
2023/08/02 06:12:13;;;;;;;;;;;15.50;95.60;;;;;;5092088;28;19916;-77
2023/08/02 06:14:39;;;;;;;;;;;15.50;95.70;;;;;;5095023;28;19916;-77
2023/08/02 06:17:05;;;;;;;;;;;15.50;95.70;;;;;;5093998;28;19947;-76
2023/08/02 06:19:30;;;;;;;;;;;15.50;95.50;;;;;;5094405;28;19920;-76
2023/08/02 06:21:56;;;;;;;;;;;15.60;95.50;;;;;;5095096;28;20273;-76
2023/08/02 06:24:22;;;;;;;;;;;15.60;95.50;;;;;;5095972;28;19916;-76
2023/08/02 06:26:47;;;;;;;;;;;15.50;95.40;;;;;;5078002;28;19916;-77
2023/08/02 06:29:13;;;;;;;;;;;15.60;95.40;;;;;;5061589;28;20010;-78
2023/08/02 06:31:39;;;;;;;;;;;15.60;95.40;;;;;;5078236;28;20029;-78
2023/08/02 06:34:04;;;;;;;;;;;15.60;95.50;;;;;;5094771;28;20169;-78
2023/08/02 06:36:30;;;;;;;;;;;15.60;95.40;;;;;;5094597;28;19977;-78
2023/08/02 06:38:56;;;;;;;;;;;15.60;95.50;;;;;;5077889;28;19981;-78
2023/08/02 06:41:21;;;;;;;;;;;15.60;95.50;;;;;;5077785;28;19959;-78
2023/08/02 06:43:47;;;;;;;;;;;15.60;95.40;;;;;;5094610;28;19963;-78
2023/08/02 06:46:12;;;;;;;;;;;15.70;95.40;;;;;;5094600;28;19916;-78
2023/08/02 06:48:38;;;;;;;;;;;15.70;95.30;;;;;;5077730;28;19973;-78
2023/08/02 06:51:04;;;;;;;;;;;15.70;95.30;;;;;;5057616;28;20003;-78
2023/08/02 06:53:30;;;;;;;;;;;15.80;95.30;;;;;;5085459;28;19975;-78
2023/08/02 06:55:56;;;;;;;;;;;15.80;95.30;;;;;;5069538;28;19923;-77
2023/08/02 06:58:22;;;;;;;;;;;15.80;95.40;;;;;;5070713;28;19920;-78
2023/08/02 07:00:48;;;;;;;;;;;15.90;95.20;;;;;;5085136;28;19969;-78
2023/08/02 07:03:13;;;;;;;;;;;15.80;94.90;;;;;;5086842;28;20106;-77
2023/08/02 07:05:39;;;;;;;;;;;15.90;95.00;;;;;;5086651;28;19927;-78
2023/08/02 07:08:05;;;;;;;;;;;16.00;95.10;;;;;;5053195;28;19977;-77
2023/08/02 07:10:31;;;;;;;;;;;16.00;95.00;;;;;;5051232;28;19916;-77
2023/08/02 07:12:56;;;;;;;;;;;15.90;95.00;;;;;;5086518;28;19991;-78
2023/08/02 07:15:22;;;;;;;;;;;16.00;95.10;;;;;;5085404;28;19974;-78
2023/08/02 07:17:48;;;;;;;;;;;15.90;95.00;;;;;;5086102;28;19923;-77
2023/08/02 07:20:14;;;;;;;;;;;15.90;95.00;;;;;;5084823;28;20007;-77
2023/08/02 07:22:41;;;;;;;;;;;15.90;94.90;;;;;;5069323;28;20006;-77
2023/08/02 07:25:07;;;;;;;;;;;15.80;94.80;;;;;;5085864;28;20010;-78
2023/08/02 07:27:33;;;;;;;;;;;15.80;94.90;;;;;;5068767;28;20019;-77
2023/08/02 07:29:59;;;;;;;;;;;15.80;94.90;;;;;;5050071;28;19920;-77
2023/08/02 07:32:25;;;;;;;;;;;15.70;95.10;;;;;;5069894;28;19916;-77
2023/08/02 07:34:51;;;;;;;;;;;15.70;95.20;;;;;;5086414;28;19991;-78
2023/08/02 07:37:17;;;;;;;;;;;15.70;95.10;;;;;;5085720;28;20407;-78
2023/08/02 07:39:42;;;;;;;;;;;15.70;95.20;;;;;;5084563;28;19920;-79
2023/08/02 07:42:08;;;;;;;;;;;15.70;95.30;;;;;;5052605;28;19924;-78
2023/08/02 07:44:34;;;;;;;;;;;15.70;95.50;;;;;;5085601;28;19927;-79
2023/08/02 07:46:59;;;;;;;;;;;15.70;95.50;;;;;;5085813;28;20257;-78
2023/08/02 07:49:25;;;;;;;;;;;15.80;95.60;;;;;;5067691;28;19916;-79
2023/08/02 07:51:50;;;;;;;;;;;15.70;95.90;;;;;;5068496;28;19989;-80
2023/08/02 07:54:16;;;;;;;;;;;15.70;95.80;;;;;;5079798;28;19999;-79
2023/08/02 07:56:41;;;;;;;;;;;15.70;95.90;;;;;;5084031;28;19927;-79
2023/08/02 07:59:07;;;;;;;;;;;15.70;95.80;;;;;;5062838;28;20382;-79
2023/08/02 08:01:33;;;;;;;;;;;15.80;95.80;;;;;;5067165;28;20399;-79
2023/08/02 08:03:58;;;;;;;;;;;15.80;95.80;;;;;;5085957;28;19938;-78
2023/08/02 08:06:25;;;;;;;;;;;15.70;95.80;;;;;;5069013;28;19981;-79
2023/08/02 08:08:51;;;;;;;;;;;15.70;95.70;;;;;;5085851;28;19935;-80
2023/08/02 08:11:16;;;;;;;;;;;15.70;95.70;;;;;;5067503;28;19927;-80
2023/08/02 08:13:42;;;;;;;;;;;15.60;95.70;;;;;;5068935;28;19931;-79
2023/08/02 08:16:07;;;;;;;;;;;15.60;95.80;;;;;;5085483;28;20413;-80
2023/08/02 08:18:33;;;;;;;;;;;15.60;95.70;;;;;;5085111;28;19932;-79
2023/08/02 08:21:01;;;;;;;;;;;15.60;95.80;;;;;;5066944;28;19916;-80
2023/08/02 08:23:27;;;;;;;;;;;15.60;95.80;;;;;;5067553;28;19927;-80
2023/08/02 08:25:53;;;;;;;;;;;15.50;95.80;;;;;;5085247;28;19916;-80
2023/08/02 08:28:18;;;;;;;;;;;15.50;95.70;;;;;;5068412;28;20532;-80
2023/08/02 08:30:44;;;;;;;;;;;15.50;95.80;;;;;;5067227;28;20292;-80
2023/08/02 08:33:10;;;;;;;;;;;15.50;95.90;;;;;;5068602;28;19924;-80
2023/08/02 08:35:35;;;;;;;;;;;15.50;95.90;;;;;;5084939;28;20611;-79
2023/08/02 08:38:01;;;;;;;;;;;15.50;96.00;;;;;;5051316;28;19993;-80
2023/08/02 08:40:27;;;;;;;;;;;15.50;96.00;;;;;;5084397;28;20332;-80
2023/08/02 08:42:54;;;;;;;;;;;15.50;96.00;;;;;;5068540;28;19965;-79
2023/08/02 08:45:21;;;;;;;;;;;15.50;96.00;;;;;;5075655;28;19920;-80
2023/08/02 08:47:47;;;;;;;;;;;15.50;96.00;;;;;;5089776;28;19924;-78
2023/08/02 08:50:13;;;;;;;;;;;15.50;96.00;;;;;;5085264;28;19943;-79
2023/08/02 08:52:44;;;;;;;;;;;15.50;96.00;;;;;;5086894;28;19931;-80
2023/08/02 08:55:11;;;;;;;;;;;15.50;96.00;;;;;;5067904;28;20015;-80
2023/08/02 08:57:37;;;;;;;;;;;15.50;96.10;;;;;;5068195;28;19928;-79
2023/08/02 09:00:05;;;;;;;;;;;15.50;96.20;;;;;;5066551;28;19923;-80
2023/08/02 09:02:32;;;;;;;;;;;15.50;96.30;;;;;;5062485;28;19916;-79
2023/08/02 09:04:57;;;;;;;;;;;15.60;96.30;;;;;;5085067;28;19927;-79
2023/08/02 09:07:23;;;;;;;;;;;15.50;96.30;;;;;;5084699;28;19916;-79
2023/08/02 09:09:49;;;;;;;;;;;15.50;96.50;;;;;;5067205;28;20019;-80
2023/08/02 09:12:14;;;;;;;;;;;15.60;96.60;;;;;;5068304;28;20496;-78
2023/08/02 09:14:57;;;;;;;;;;;15.60;96.50;;;;;;5085056;28;20474;-80
2023/08/02 09:17:23;;;;;;;;;;;15.70;96.50;;;;;;5068044;28;19953;-79
2023/08/02 09:19:49;;;;;;;;;;;15.70;96.40;;;;;;5084219;28;20076;-78
2023/08/02 09:22:15;;;;;;;;;;;15.80;96.40;;;;;;5084538;28;19926;-79
2023/08/02 09:24:41;;;;;;;;;;;15.80;96.40;;;;;;5084418;28;20044;-79
2023/08/02 09:27:11;;;;;;;;;;;15.80;96.40;;;;;;5067718;28;19924;-80
2023/08/02 09:29:43;;;;;;;;;;;15.90;96.40;;;;;;5083303;28;19924;-79
2023/08/02 09:32:08;;;;;;;;;;;15.90;96.40;;;;;;5067879;28;19976;-79
2023/08/02 09:35:00;;;;;;;;;;;15.90;96.30;;;;;;5067665;28;19924;-79
2023/08/02 09:37:33;;;;;;;;;;;16.00;96.30;;;;;;5079151;28;19988;-79
2023/08/02 09:39:59;;;;;;;;;;;16.10;96.30;;;;;;5085740;28;19923;-79
2023/08/02 09:42:26;;;;;;;;;;;16.00;96.30;;;;;;5072171;28;20325;-78
2023/08/02 09:44:55;;;;;;;;;;;16.10;96.30;;;;;;5088119;28;19924;-78
2023/08/02 09:47:21;;;;;;;;;;;16.10;96.20;;;;;;5071009;28;19940;-78
2023/08/02 09:50:03;;;;;;;;;;;16.20;96.30;;;;;;5087409;28;19969;-79
2023/08/02 09:52:29;;;;;;;;;;;16.20;96.30;;;;;;5087081;28;19915;-79
2023/08/02 09:54:55;;;;;;;;;;;16.20;96.30;;;;;;5088197;28;20056;-79
2023/08/02 09:57:23;;;;;;;;;;;16.20;96.20;;;;;;5087864;28;20027;-79
2023/08/02 09:59:51;;;;;;;;;;;16.30;96.20;;;;;;5086978;28;19941;-78
2023/08/02 10:02:17;;;;;;;;;;;16.40;96.20;;;;;;5088294;28;19983;-78
2023/08/02 10:04:43;;;;;;;;;;;16.40;96.30;;;;;;5064978;28;20553;-79
2023/08/02 10:07:10;;;;;;;;;;;16.40;96.30;;;;;;5087825;28;20441;-79
2023/08/02 10:09:36;;;;;;;;;;;16.30;96.30;;;;;;5086442;28;19924;-78
2023/08/02 10:12:11;;;;;;;;;;;16.30;96.30;;;;;;5082522;28;19916;-79
2023/08/02 10:14:37;;;;;;;;;;;16.40;96.40;;;;;;5070454;28;19931;-79
2023/08/02 10:17:03;;;;;;;;;;;16.40;96.40;;;;;;5070754;28;20280;-78
2023/08/02 10:19:29;;;;;;;;;;;16.40;96.50;;;;;;5086236;28;20394;-78
2023/08/02 10:21:58;;;;;;;;;;;16.50;96.40;;;;;;5087267;28;19927;-78
2023/08/02 10:24:27;;;;;;;;;;;16.50;96.40;;;;;;5087856;28;20271;-78
2023/08/02 10:26:55;;;;;;;;;;;16.50;96.40;;;;;;5087110;28;19924;-77
2023/08/02 10:29:21;;;;;;;;;;;16.50;96.40;;;;;;5070078;28;19923;-78
2023/08/02 10:31:46;;;;;;;;;;;16.60;96.40;;;;;;5070833;28;20391;-80
2023/08/02 10:34:31;;;;;;;;;;;16.50;96.30;;;;;;5070857;28;19923;-79
2023/08/02 10:36:56;;;;;;;;;;;16.40;96.30;;;;;;5086745;28;19930;-80
2023/08/02 10:39:41;;;;;;;;;;;16.40;96.40;;;;;;5052961;28;20300;-80
2023/08/02 10:42:06;;;;;;;;;;;16.40;96.30;;;;;;5069780;28;19924;-78
2023/08/02 10:44:34;;;;;;;;;;;16.50;96.40;;;;;;5087554;28;19923;-78
2023/08/02 10:47:18;;;;;;;;;;;16.50;96.20;;;;;;5086921;28;19916;-79
2023/08/02 10:49:44;;;;;;;;;;;16.50;96.30;;;;;;5067488;28;19924;-79
2023/08/02 10:52:26;;;;;;;;;;;16.40;96.40;;;;;;5069747;28;19927;-78
2023/08/02 10:55:04;;;;;;;;;;;16.40;96.50;;;;;;5086999;28;19920;-79
2023/08/02 10:57:29;;;;;;;;;;;16.30;96.60;;;;;;5086876;28;19924;-78
2023/08/02 10:59:56;;;;;;;;;;;16.40;96.70;;;;;;5085729;28;19922;-79
2023/08/02 11:02:25;;;;;;;;;;;16.30;96.70;;;;;;5086424;28;19944;-78
2023/08/02 11:04:51;;;;;;;;;;;16.30;96.80;;;;;;5086938;28;20378;-78
2023/08/02 11:07:18;;;;;;;;;;;16.40;97.00;;;;;;5087215;28;19924;-78
2023/08/02 11:09:44;;;;;;;;;;;16.40;96.80;;;;;;5051559;28;19924;-78
2023/08/02 11:12:17;;;;;;;;;;;16.40;96.70;;;;;;5069502;28;19924;-77
2023/08/02 11:14:43;;;;;;;;;;;16.40;97.00;;;;;;5048216;28;19924;-78
2023/08/02 11:17:10;;;;;;;;;;;16.50;96.90;;;;;;5069032;28;20047;-78
2023/08/02 11:19:36;;;;;;;;;;;16.70;97.10;;;;;;5064283;28;19934;-78
2023/08/02 11:22:02;;;;;;;;;;;17.00;97.30;;;;;;5086213;28;19916;-79
2023/08/02 11:24:28;;;;;;;;;;;17.30;97.40;;;;;;5086511;28;19966;-77
2023/08/02 11:26:55;;;;;;;;;;;17.50;96.90;;;;;;5052730;28;19967;-78
2023/08/02 11:29:20;;;;;;;;;;;17.60;96.90;;;;;;5092867;28;19965;-78
2023/08/02 11:31:47;;;;;;;;;;;17.60;96.50;;;;;;5076783;28;19916;-78
2023/08/02 11:34:17;;;;;;;;;;;17.70;96.20;;;;;;5093857;28;19916;-77
2023/08/02 11:36:43;;;;;;;;;;;17.80;96.50;;;;;;5093392;28;20136;-78
2023/08/02 11:39:12;;;;;;;;;;;18.00;96.30;;;;;;5093549;28;19945;-78
2023/08/02 11:41:38;;;;;;;;;;;18.00;96.10;;;;;;5076566;28;20380;-78
2023/08/02 11:44:13;;;;;;;;;;;17.90;95.10;;;;;;5059858;28;19923;-79
2023/08/02 11:46:39;;;;;;;;;;;17.90;95.50;;;;;;5093577;28;19916;-78
2023/08/02 11:49:06;;;;;;;;;;;18.00;95.50;;;;;;5060076;28;19923;-78
2023/08/02 11:51:32;;;;;;;;;;;18.00;95.50;;;;;;5093568;28;19916;-78
2023/08/02 11:53:59;;;;;;;;;;;18.00;95.80;;;;;;5076538;28;20034;-78
2023/08/02 11:56:25;;;;;;;;;;;18.10;95.70;;;;;;5076411;28;19963;-79
2023/08/02 11:58:52;;;;;;;;;;;18.10;95.60;;;;;;5092977;28;19920;-78
2023/08/02 12:01:18;;;;;;;;;;;18.00;95.50;;;;;;5076432;28;20292;-78
2023/08/02 12:03:53;;;;;;;;;;;18.00;95.30;;;;;;5093332;28;20257;-78
2023/08/02 12:06:18;;;;;;;;;;;18.00;95.50;;;;;;5093253;28;20271;-79
2023/08/02 12:08:51;;;;;;;;;;;17.90;95.60;;;;;;5076360;28;20010;-79
2023/08/02 12:11:17;;;;;;;;;;;17.90;95.70;;;;;;5075911;28;19927;-78
2023/08/02 12:13:44;;;;;;;;;;;18.00;95.90;;;;;;5093015;28;19915;-78
2023/08/02 12:16:11;;;;;;;;;;;18.00;96.10;;;;;;5076172;28;19916;-77
2023/08/02 12:18:53;;;;;;;;;;;18.20;96.10;;;;;;5075446;28;19923;-77
2023/08/02 12:21:19;;;;;;;;;;;18.50;96.10;;;;;;5076205;28;19915;-77
2023/08/02 12:23:44;;;;;;;;;;;18.90;96.00;;;;;;5075851;28;20338;-77
2023/08/02 12:26:10;;;;;;;3.67;3.38;;;19.30;95.40;;;;;;5092621;28;19967;-77
2023/08/02 12:28:46;;;;;;;;;;;19.50;93.70;;;;;;5092654;28;20391;-78
2023/08/02 12:31:11;;;;;;;;;;;19.60;93.70;;;;;;5077635;28;20399;-78
2023/08/02 12:33:37;;;;;;;;;;;19.60;92.00;;;;;;5084768;28;19920;-78
2023/08/02 12:36:03;;;;;;;;;;;19.80;92.90;;;;;;5083312;28;19956;-78
2023/08/02 12:38:29;;;;;;;;;;;19.90;91.70;;;;;;5055494;28;20412;-77
2023/08/02 12:40:59;;;;;;;;;;;20.00;91.90;;;;;;5072539;28;19920;-78
2023/08/02 12:43:25;;;;;;;;;;;20.20;90.80;;;;;;5049026;28;19916;-79
2023/08/02 12:45:52;;;;;;;;;;;20.50;90.30;;;;;;5077741;28;19916;-78
2023/08/02 12:48:17;;;;;;;;;;;20.80;88.70;;;;;;5067235;28;19916;-78
2023/08/02 12:50:43;;;;;;;;;;;21.00;89.10;;;;;;5084873;28;20307;-78
2023/08/02 12:53:12;;;;;;;;;;;21.00;88.70;;;;;;5068221;28;19969;-78
2023/08/02 12:55:37;;;;;;;;;;;21.00;87.20;;;;;;5083385;28;19924;-76
2023/08/02 12:58:03;;;;;;;;;;;21.20;87.60;;;;;;5085034;28;19928;-77
2023/08/02 13:00:29;;;;;;;;;;;21.30;84.90;;;;;;5067501;28;19923;-78
2023/08/02 13:02:54;;;;;;;;;;;21.50;84.50;;;;;;5067726;28;19951;-77
2023/08/02 13:05:20;;;;;;;;;;;21.70;83.30;;;;;;5066446;28;19915;-77
2023/08/02 13:07:46;;;;;;;;;;;21.90;82.70;;;;;;5067627;28;20344;-76
2023/08/02 13:10:11;;;;;;;;;;;22.10;81.70;;;;;;5084195;28;19924;-77
2023/08/02 13:12:37;;;;;;;;;;;22.10;81.00;;;;;;5085052;28;20002;-77
2023/08/02 13:15:03;;;;;;;;;;;21.90;81.30;;;;;;5088110;28;19930;-78
2023/08/02 13:17:31;;;;;;;;;;;21.80;79.60;;;;;;5086965;28;19924;-79
2023/08/02 13:19:57;;;;;;;;;;;21.70;80.90;;;;;;5054910;28;20031;-77
2023/08/02 13:22:22;;;;;;;;;;;21.50;80.50;;;;;;5088058;28;19998;-77
2023/08/02 13:24:48;;;;;;;;;;;21.40;81.20;;;;;;5088309;28;19919;-78
2023/08/02 13:27:13;;;;;;;;;;;21.30;82.00;;;;;;5087560;28;19924;-77
2023/08/02 13:29:39;;;;;;;;;;;21.10;80.50;;;;;;5071812;28;20386;-78
2023/08/02 13:32:05;;;;;;;;;;;21.00;80.80;;;;;;5071402;28;19920;-77
2023/08/02 13:34:30;;;;;;;;;;;21.00;80.70;;;;;;5071105;28;19924;-77
2023/08/02 13:36:59;;;;;;;;;;;20.90;81.40;;;;;;5053609;28;20386;-76
2023/08/02 13:39:25;;;;;;;;;;;20.90;81.00;;;;;;5071271;28;19924;-77
2023/08/02 13:41:51;;;;;;;;;;;20.70;82.00;;;;;;5087040;28;19966;-78
2023/08/02 13:44:17;;;;;;;;;;;20.70;83.60;;;;;;5088118;28;19996;-77
2023/08/02 13:46:43;;;;;;;;;;;20.60;84.30;;;;;;5064676;28;20127;-78
2023/08/02 13:49:08;;;;;;;;;;;20.60;84.10;;;;;;5054087;28;19924;-77
2023/08/02 13:51:34;;;;;;;;;;;20.60;83.40;;;;;;5087935;28;19924;-76
2023/08/02 13:54:00;;;;;;;;;;;20.90;79.70;;;;;;5065281;28;19924;-77
2023/08/02 13:56:28;;;;;;;;;;;21.10;78.50;;;;;;5086248;28;20011;-77
2023/08/02 13:58:54;;;;;;;;;;;21.40;77.70;;;;;;5070648;28;20433;-77
2023/08/02 14:01:19;;;;;;;;;;;21.70;77.30;;;;;;5087954;28;19920;-77
2023/08/02 14:03:45;;;;;;;;;;;21.80;74.20;;;;;;5087558;28;19923;-77
2023/08/02 14:06:10;;;;;;;;;;;21.90;74.40;;;;;;5086239;28;20312;-76
2023/08/02 14:08:36;;;;;;;;;;;22.10;73.80;;;;;;5087589;28;19993;-76
2023/08/02 14:11:02;;;;;;;;;;;22.10;73.30;;;;;;5086842;28;19924;-77
2023/08/02 14:13:27;;;;;;;;;;;22.10;73.80;;;;;;5086865;28;19931;-76